Time;durP1;ratioP1;P1;durP2;ratioP2;P2;SDS_P1;SDS_P2;PMS_P1;PMS_P2;Temp;Humidity;BMP_temperature;BMP_pressure;BME280_temperature;BME280_humidity;BME280_pressure;Samples;Min_cycle;Max_cycle;Signal;HPM_P1;HPM_P2
2021/07/18 00:01:59;;;;;;;5.80;3.37;;;;;;;28.84;47.40;100069.34;128343;1087;64233;-85
2021/07/18 00:04:28;;;;;;;5.47;3.20;;;;;;;28.84;47.79;100066.63;128358;1087;63949;-85
2021/07/18 00:06:54;;;;;;;4.80;3.00;;;;;;;28.84;47.61;100066.63;128370;1087;64099;-84
2021/07/18 00:09:24;;;;;;;5.67;3.50;;;;;;;28.85;47.79;100067.47;128353;1087;64129;-85
2021/07/18 00:11:50;;;;;;;4.83;3.13;;;;;;;28.84;47.96;100058.48;128365;1087;64237;-85
2021/07/18 00:14:16;;;;;;;4.83;3.30;;;;;;;28.84;48.14;100066.63;128386;1087;64109;-85
2021/07/18 00:16:51;;;;;;;4.70;3.40;;;;;;;28.83;47.46;100059.50;128363;1084;64280;-85
2021/07/18 00:19:18;;;;;;;6.20;3.27;;;;;;;28.84;47.95;100054.91;128385;1087;64285;-85
2021/07/18 00:21:45;;;;;;;5.20;3.30;;;;;;;28.83;47.80;100055.92;128362;1086;64079;-85
2021/07/18 00:24:13;;;;;;;4.90;3.13;;;;;;;28.83;47.84;100059.50;128377;1087;64130;-86
2021/07/18 00:26:52;;;;;;;4.57;3.30;;;;;;;28.82;47.54;100048.81;128350;1087;64310;-84
2021/07/18 00:29:18;;;;;;;6.33;3.40;;;;;;;28.83;47.97;100050.48;128358;1086;64237;-84
2021/07/18 00:31:44;;;;;;;7.10;3.53;;;;;;;28.81;48.02;100039.80;128386;1087;64243;-86
2021/07/18 00:34:11;;;;;;;5.03;3.33;;;;;;;28.81;47.97;100047.95;128386;1087;64163;-85
2021/07/18 00:36:37;;;;;;;6.67;3.40;;;;;;;28.82;47.69;100044.22;128395;1087;64144;-86
2021/07/18 00:39:15;;;;;;;6.13;3.30;;;;;;;28.81;47.99;100047.95;128064;1087;64192;-85
2021/07/18 00:41:44;;;;;;;4.53;3.30;;;;;;;28.82;48.07;100041.50;128409;1087;64179;-85
2021/07/18 00:44:11;;;;;;;5.73;3.70;;;;;;;28.81;47.90;100047.95;128358;1087;64159;-86
2021/07/18 00:46:40;;;;;;;5.63;3.57;;;;;;;28.81;48.02;100047.13;128352;1085;62063;-86
2021/07/18 00:49:07;;;;;;;5.90;3.40;;;;;;;28.80;47.97;100046.28;128386;1086;64211;-86
2021/07/18 00:51:33;;;;;;;5.20;3.40;;;;;;;28.81;48.06;100047.95;128365;1087;64147;-85
2021/07/18 00:54:00;;;;;;;4.60;3.55;;;;;;;28.80;48.18;100049.00;128375;1087;64311;-85
2021/07/18 00:56:30;;;;;;;4.90;3.10;;;;;;;28.82;48.22;100044.22;128368;1087;64182;-84
2021/07/18 00:58:59;;;;;;;5.77;3.53;;;;;;;28.81;47.85;100047.13;128375;1086;64310;-85
2021/07/18 01:01:29;;;;;;;4.87;3.27;;;;;;;28.81;48.21;100041.69;128388;1087;64114;-85
2021/07/18 01:03:55;;;;;;;5.00;3.40;;;;;;;28.80;48.00;100038.14;128369;1087;64135;-85
2021/07/18 01:06:21;;;;;;;4.17;3.10;;;;;;;28.80;47.92;100043.56;128342;1087;64112;-85
2021/07/18 01:08:59;;;;;;;;;;;;;;;;;;;;;
2021/07/18 01:11:26;;;;;;;4.33;3.27;;;;;;;28.80;47.92;100045.42;128373;1085;61950;-86
2021/07/18 01:13:53;;;;;;;7.23;3.40;;;;;;;28.79;48.18;100047.30;128359;1085;64617;-86
2021/07/18 01:16:20;;;;;;;5.90;3.50;;;;;;;28.80;47.92;100046.28;128376;1087;64157;-85
2021/07/18 01:18:48;;;;;;;5.43;3.27;;;;;;;28.80;48.15;100046.28;128353;1087;64285;-85
2021/07/18 01:21:14;;;;;;;5.77;3.70;;;;;;;28.80;48.03;100040.86;128361;1087;64217;-84
2021/07/18 01:23:43;;;;;;;5.57;3.60;;;;;;;28.79;48.35;100041.88;128009;1086;64147;-84
2021/07/18 01:26:09;;;;;;;4.63;3.20;;;;;;;28.80;48.31;100039.98;128355;1087;64138;-85
2021/07/18 01:28:36;;;;;;;5.60;3.10;;;;;;;28.78;48.07;100040.17;128373;1087;64313;-85
2021/07/18 01:31:04;;;;;;;5.53;3.13;;;;;;;28.79;48.08;100046.44;128373;1087;64137;-85
2021/07/18 01:33:31;;;;;;;7.23;3.68;;;;;;;28.78;48.32;100051.03;128351;1085;64164;-85
2021/07/18 01:35:57;;;;;;;5.87;3.40;;;;;;;28.78;48.07;100051.03;128342;1087;64664;-86
2021/07/18 01:38:24;;;;;;;5.83;3.50;;;;;;;28.79;48.19;100043.72;128361;1087;64122;-86
2021/07/18 01:40:50;;;;;;;6.87;3.50;;;;;;;28.79;47.97;100046.44;128383;1086;64153;-85
2021/07/18 01:43:42;;;;;;;5.87;3.47;;;;;;;28.78;47.71;100044.77;128350;1087;64134;-85
2021/07/18 01:46:09;;;;;;;6.07;3.70;;;;;;;28.78;48.38;100055.63;127921;1086;64157;-84
2021/07/18 01:48:35;;;;;;;5.00;3.40;;;;;;;28.77;48.17;100052.05;127917;1087;64334;-86
2021/07/18 01:51:03;;;;;;;5.17;3.20;;;;;;;28.78;48.28;100056.47;127934;1090;64314;-85
2021/07/18 01:53:30;;;;;;;5.63;3.70;;;;;;;28.76;48.02;100051.22;127860;1087;64167;-85
2021/07/18 01:55:56;;;;;;;6.03;3.80;;;;;;;28.78;47.87;100058.35;127898;1085;64257;-86
2021/07/18 01:58:29;;;;;;;5.60;3.60;;;;;;;28.77;48.16;100046.63;127952;1087;64079;-86
2021/07/18 02:01:01;;;;;;;6.93;3.83;;;;;;;28.76;48.30;100056.66;127889;1088;64149;-85
2021/07/18 02:03:27;;;;;;;4.23;3.20;;;;;;;28.77;48.42;100046.63;127910;1087;64108;-85
2021/07/18 02:05:55;;;;;;;5.93;3.57;;;;;;;28.76;48.30;100051.22;127921;1087;64323;-84
2021/07/18 02:08:23;;;;;;;5.13;3.37;;;;;;;28.75;48.55;100049.52;127956;1087;64140;-85
2021/07/18 02:10:50;;;;;;;6.43;3.67;;;;;;;28.76;48.19;100053.94;127896;1087;64166;-84
2021/07/18 02:13:17;;;;;;;5.97;3.43;;;;;;;28.76;48.25;100056.66;127900;1087;64156;-85
2021/07/18 02:15:55;;;;;;;5.73;3.50;;;;;;;28.76;48.45;100055.79;127885;1087;64272;-85
2021/07/18 02:18:21;;;;;;;7.27;3.50;;;;;;;28.76;48.18;100064.80;127920;1087;64166;-85
2021/07/18 02:20:48;;;;;;;5.63;3.70;;;;;;;28.76;48.45;100066.65;127907;1087;64099;-86
2021/07/18 02:23:15;;;;;;;5.00;3.40;;;;;;;28.75;47.62;100057.67;128023;1086;65316;-86
2021/07/18 02:25:41;;;;;;;4.40;3.43;;;;;;;28.76;48.32;100050.35;128363;1087;64099;-86
2021/07/18 02:28:08;;;;;;;5.75;3.85;;;;;;;28.75;48.33;100054.12;128381;1085;65329;-85
2021/07/18 02:30:35;;;;;;;5.10;3.43;;;;;;;28.75;48.39;100057.67;128336;1086;64095;-86
2021/07/18 02:33:02;;;;;;;5.17;3.53;;;;;;;28.75;48.17;100063.10;128372;1086;63955;-86
2021/07/18 02:35:28;;;;;;;6.70;3.40;;;;;;;28.75;48.29;100054.12;128374;1087;62040;-85
2021/07/18 02:37:57;;;;;;;5.70;3.47;;;;;;;28.75;48.32;100063.10;128407;1087;64166;-85
2021/07/18 02:40:23;;;;;;;5.70;3.53;;;;;;;28.74;48.07;100061.40;128359;1087;64287;-85
2021/07/18 02:42:53;;;;;;;5.93;3.53;;;;;;;28.75;48.19;100054.12;128353;1086;64208;-85
2021/07/18 02:45:21;;;;;;;6.03;3.67;;;;;;;28.76;48.40;100055.79;128389;1086;64256;-86
2021/07/18 02:47:48;;;;;;;6.03;3.48;;;;;;;28.74;48.46;100053.25;128397;1087;64152;-86
2021/07/18 02:50:17;;;;;;;6.40;3.53;;;;;;;28.75;47.92;100070.41;128384;1087;63968;-86
2021/07/18 02:52:47;;;;;;;5.47;3.77;;;;;;;28.74;48.68;100064.12;128338;1087;64104;-86
2021/07/18 02:55:22;;;;;;;6.50;3.57;;;;;;;28.74;48.16;100060.57;128364;1087;64236;-85
2021/07/18 02:57:52;;;;;;;6.57;3.37;;;;;;;28.74;48.56;100080.41;128358;1087;64212;-85
2021/07/18 03:00:24;;;;;;;5.17;3.57;;;;;;;28.75;48.24;100075.84;128352;1087;64140;-86
2021/07/18 03:02:59;;;;;;;4.80;3.53;;;;;;;28.74;48.48;100077.70;128363;1087;64150;-85
2021/07/18 03:05:25;;;;;;;6.40;3.87;;;;;;;28.74;48.56;100079.58;128377;1087;64259;-86
2021/07/18 03:07:52;;;;;;;5.97;3.77;;;;;;;28.74;48.59;100080.41;128352;1087;64150;-85
2021/07/18 03:10:19;;;;;;;5.37;3.63;;;;;;;28.74;48.50;100074.98;128377;1087;64243;-85
2021/07/18 03:12:45;;;;;;;4.97;3.73;;;;;;;28.74;48.49;100072.27;128384;1086;64215;-85
2021/07/18 03:15:14;;;;;;;5.43;3.50;;;;;;;28.74;48.54;100074.15;128350;1087;64102;-86
2021/07/18 03:17:41;;;;;;;5.77;3.20;;;;;;;28.74;48.19;100071.43;128423;1086;64099;-85
2021/07/18 03:20:12;;;;;;;4.60;3.50;;;;;;;28.73;48.35;100070.59;128414;1087;64588;-84
2021/07/18 03:22:41;;;;;;;6.97;3.57;;;;;;;28.73;48.50;100078.74;128081;1087;64207;-85
2021/07/18 03:25:08;;;;;;;5.60;3.50;;;;;;;28.74;48.68;100080.41;128404;1086;64562;-85
2021/07/18 03:27:34;;;;;;;7.57;4.00;;;;;;;28.74;48.61;100080.41;128414;1086;64131;-84
2021/07/18 03:30:01;;;;;;;6.63;3.93;;;;;;;28.75;48.35;100075.84;128371;1085;64279;-85
2021/07/18 03:32:27;;;;;;;5.03;3.63;;;;;;;28.75;48.59;100089.42;128424;1087;64094;-85
2021/07/18 03:34:54;;;;;;;5.53;3.67;;;;;;;28.75;48.65;100092.98;128447;1087;64142;-84
2021/07/18 03:37:20;;;;;;;5.07;3.70;;;;;;;28.76;48.47;100093.81;128481;1086;64207;-86
2021/07/18 03:39:46;;;;;;;4.90;3.87;;;;;;;28.75;48.44;100092.14;128519;1085;62126;-84
2021/07/18 03:42:13;;;;;;;7.90;3.50;;;;;;;28.76;48.67;100091.09;128424;1087;64141;-86
2021/07/18 03:44:40;;;;;;;6.37;3.73;;;;;;;28.76;48.52;100091.95;128411;1085;64187;-85
2021/07/18 03:47:11;;;;;;;5.47;3.87;;;;;;;28.77;48.46;100095.52;128431;1086;64096;-86
2021/07/18 03:49:54;;;;;;;6.47;3.80;;;;;;;28.76;48.60;100093.81;128357;1087;64157;-86
2021/07/18 03:52:21;;;;;;;5.90;3.83;;;;;;;28.78;48.62;100096.38;128369;1086;64099;-85
2021/07/18 03:54:47;;;;;;;6.27;4.00;;;;;;;28.76;48.67;100094.67;128366;1086;61843;-84
2021/07/18 03:57:14;;;;;;;5.50;3.83;;;;;;;28.76;48.59;100102.83;128383;1087;64217;-84
2021/07/18 03:59:41;;;;;;;6.13;3.77;;;;;;;28.76;48.32;100102.83;128362;1086;64134;-86
2021/07/18 04:02:17;;;;;;;7.40;3.87;;;;;;;28.77;48.50;100103.66;128359;1087;64182;-86
2021/07/18 04:04:43;;;;;;;7.10;4.20;;;;;;;28.76;48.62;100099.23;128340;1086;64186;-86
2021/07/18 04:07:12;;;;;;;4.97;4.00;;;;;;;28.76;48.37;100104.67;128021;1087;61740;-86
2021/07/18 04:09:43;;;;;;;6.73;4.07;;;;;;;28.76;48.53;100105.54;128375;1086;64597;-85
2021/07/18 04:12:27;;;;;;;5.40;4.10;;;;;;;28.76;48.34;100107.39;128368;1087;64288;-85
2021/07/18 04:15:13;;;;;;;5.33;3.73;;;;;;;28.76;48.34;100112.82;128409;1087;64128;-86
2021/07/18 04:17:42;;;;;;;5.63;3.90;;;;;;;28.76;48.67;100112.82;128399;1087;64195;-86
2021/07/18 04:20:08;;;;;;;;;;;;;;;28.75;48.54;100113.88;128410;1086;64266;-85
2021/07/18 04:22:39;;;;;;;5.20;4.17;;;;;;;28.75;48.48;100111.16;128326;1085;64211;-85
2021/07/18 04:25:06;;;;;;;5.83;3.87;;;;;;;28.76;48.62;100121.84;128367;1087;64099;-85
2021/07/18 04:27:35;;;;;;;4.93;3.67;;;;;;;28.76;48.65;100118.25;128371;1087;64360;-86
2021/07/18 04:30:03;;;;;;;5.70;3.90;;;;;;;28.76;48.43;100116.41;128383;1087;64183;-85
2021/07/18 04:32:29;;;;;;;5.17;3.47;;;;;;;28.77;48.08;100119.95;128011;1087;64146;-86
2021/07/18 04:34:57;;;;;;;6.77;4.00;;;;;;;28.77;48.59;100122.67;128403;1087;64428;-86
2021/07/18 04:37:24;;;;;;;5.20;3.60;;;;;;;28.78;48.34;100118.94;128407;1086;64147;-86
2021/07/18 04:39:51;;;;;;;6.00;3.60;;;;;;;28.78;48.31;100118.10;128378;1086;64136;-85
2021/07/18 04:42:17;;;;;;;5.50;4.07;;;;;;;28.80;48.84;100121.47;128375;1086;64123;-85
2021/07/18 04:44:44;;;;;;;5.97;4.00;;;;;;;28.80;48.74;100118.75;128372;1085;64396;-86
2021/07/18 04:47:11;;;;;;;6.53;3.80;;;;;;;28.81;48.78;100115.02;128389;1087;64155;-85
2021/07/18 04:49:39;;;;;;;5.13;3.63;;;;;;;28.81;48.86;100124.00;127989;1085;64138;-85
2021/07/18 04:52:10;;;;;;;4.87;3.70;;;;;;;28.83;48.54;100121.11;128352;1087;64102;-85
2021/07/18 04:54:37;;;;;;;5.87;3.70;;;;;;;28.84;48.42;100125.52;128362;1087;64102;-85
2021/07/18 04:57:12;;;;;;;5.83;3.83;;;;;;;28.85;48.74;100121.79;128388;1087;64217;-85
2021/07/18 04:59:39;;;;;;;5.03;3.70;;;;;;;28.85;48.39;100128.06;128005;1087;64112;-85
2021/07/18 05:02:05;;;;;;;5.53;3.70;;;;;;;28.87;48.48;100128.73;128361;1087;64214;-85
2021/07/18 05:04:32;;;;;;;5.87;3.90;;;;;;;28.88;48.62;100129.58;128379;1087;64300;-85
2021/07/18 05:07:07;;;;;;;5.90;3.73;;;;;;;28.89;48.52;100120.41;128396;1086;64242;-85
2021/07/18 05:09:41;;;;;;;5.13;3.70;;;;;;;28.89;48.88;100132.11;128371;1086;63955;-85
2021/07/18 05:12:07;;;;;;;5.43;3.53;;;;;;;28.91;48.73;100127.36;128360;1087;64070;-85
2021/07/18 05:14:36;;;;;;;6.60;3.80;;;;;;;28.92;48.80;100130.91;128391;1087;63971;-85
2021/07/18 05:17:12;;;;;;;5.23;4.03;;;;;;;28.91;48.80;100132.79;128384;1087;63919;-86
2021/07/18 05:19:39;;;;;;;5.77;3.90;;;;;;;28.93;48.77;100128.05;128387;1087;64245;-85
2021/07/18 05:22:09;;;;;;;6.50;3.67;;;;;;;28.94;48.77;100137.02;128359;1087;64202;-84
2021/07/18 05:24:35;;;;;;;5.70;3.80;;;;;;;28.95;48.56;100132.42;128376;1087;64164;-85
2021/07/18 05:27:02;;;;;;;6.40;3.70;;;;;;;28.96;48.86;100134.96;128370;1086;64236;-85
2021/07/18 05:29:28;;;;;;;5.60;3.77;;;;;;;28.96;48.99;100143.11;128351;1086;64160;-86
2021/07/18 05:31:56;;;;;;;5.53;3.90;;;;;;;28.98;48.86;100142.95;128371;1087;64160;-85
2021/07/18 05:34:22;;;;;;;4.63;3.63;;;;;;;28.98;48.64;100141.08;128363;1085;64144;-86
2021/07/18 05:36:48;;;;;;;5.27;3.70;;;;;;;28.99;48.95;100141.91;128400;1087;64220;-84
2021/07/18 05:39:14;;;;;;;5.37;4.10;;;;;;;29.00;48.71;100147.20;128362;1087;64244;-85
2021/07/18 05:41:41;;;;;;;5.90;4.00;;;;;;;29.01;48.52;100148.03;128392;1085;64211;-86
2021/07/18 05:44:08;;;;;;;5.07;3.83;;;;;;;29.02;48.71;100147.01;128364;1087;64256;-85
2021/07/18 05:46:34;;;;;;;6.57;4.10;;;;;;;29.03;48.41;100151.43;128027;1086;64143;-85
2021/07/18 05:49:01;;;;;;;5.43;3.93;;;;;;;29.04;48.52;100147.66;128394;1086;65195;-85
2021/07/18 05:51:30;;;;;;;4.90;4.20;;;;;;;29.04;48.70;100147.66;128375;1087;64146;-86
2021/07/18 05:53:56;;;;;;;5.53;4.27;;;;;;;29.05;48.67;100147.48;128378;1087;64281;-85
2021/07/18 05:56:23;;;;;;;6.40;4.30;;;;;;;29.06;48.49;100151.06;128413;1087;64252;-85
2021/07/18 05:58:50;;;;;;;4.87;4.07;;;;;;;29.07;48.59;100147.33;128366;1087;64212;-85
2021/07/18 06:01:16;;;;;;;5.10;3.80;;;;;;;29.08;48.92;100148.99;128347;1085;64138;-85
2021/07/18 06:03:43;;;;;;;5.17;4.10;;;;;;;29.08;48.85;100158.02;128340;1087;64099;-84
2021/07/18 06:06:09;;;;;;;4.80;3.60;;;;;;;29.09;48.84;100148.84;128391;1087;64176;-85
2021/07/18 06:08:38;;;;;;;5.80;4.00;;;;;;;29.09;48.58;100147.98;128362;1087;64108;-85
2021/07/18 06:11:05;;;;;;;6.30;4.37;;;;;;;29.12;49.00;100149.49;128339;1087;64272;-85
2021/07/18 06:13:31;;;;;;;5.07;3.93;;;;;;;29.10;48.68;100155.95;128377;1086;64179;-85
2021/07/18 06:15:58;;;;;;;5.40;4.00;;;;;;;29.12;48.89;100144.89;128373;1086;64304;-86
2021/07/18 06:18:24;;;;;;;4.60;3.87;;;;;;;29.12;48.56;100150.33;128389;1086;64269;-85
2021/07/18 06:20:51;;;;;;;5.37;3.93;;;;;;;29.13;48.79;100148.48;128354;1085;64140;-85
2021/07/18 06:23:19;;;;;;;5.23;3.77;;;;;;;29.14;48.86;100153.73;128384;1087;64796;-85
2021/07/18 06:25:46;;;;;;;5.53;4.13;;;;;;;29.15;48.53;100143.69;128049;1087;64095;-86
2021/07/18 06:28:12;;;;;;;6.47;4.03;;;;;;;29.14;48.69;100140.14;128391;1087;64237;-86
2021/07/18 06:30:40;;;;;;;6.73;4.03;;;;;;;29.16;48.56;100143.54;128362;1087;64165;-84
2021/07/18 06:33:06;;;;;;;5.00;3.87;;;;;;;29.16;48.78;100148.11;128402;1087;64145;-85
2021/07/18 06:35:33;;;;;;;5.30;3.90;;;;;;;29.16;48.47;100137.23;128001;1087;64114;-84
2021/07/18 06:38:02;;;;;;;7.57;3.97;;;;;;;29.17;48.55;100139.77;128383;1085;64282;-85
2021/07/18 06:40:39;;;;;;;6.37;4.10;;;;;;;29.17;48.79;100137.05;128386;1085;64135;-84
2021/07/18 06:43:05;;;;;;;5.83;4.20;;;;;;;29.17;48.51;100128.90;128363;1086;64284;-86
2021/07/18 06:45:32;;;;;;;6.00;3.97;;;;;;;29.18;48.47;100130.60;128378;1087;64226;-86
2021/07/18 06:47:58;;;;;;;5.17;4.10;;;;;;;29.19;48.55;100128.72;128354;1087;64744;-85
2021/07/18 06:50:24;;;;;;;6.50;3.83;;;;;;;29.18;48.42;100125.16;128339;1087;65327;-85
2021/07/18 06:52:53;;;;;;;5.00;4.20;;;;;;;29.19;48.64;100118.71;128386;1085;64131;-85
2021/07/18 06:55:19;;;;;;;5.60;3.93;;;;;;;29.19;48.76;100118.71;128363;1087;64157;-86
2021/07/18 06:57:50;;;;;;;5.33;4.10;;;;;;;29.20;48.54;100122.27;128401;1087;64205;-85
2021/07/18 07:00:37;;;;;;;5.83;3.97;;;;;;;29.20;48.59;100122.27;128382;1087;64207;-85
2021/07/18 07:03:03;;;;;;;5.07;3.93;;;;;;;29.20;48.68;100122.27;128362;1087;64211;-85
2021/07/18 07:05:30;;;;;;;5.45;4.35;;;;;;;29.20;48.74;100125.84;128395;1087;64185;-87
2021/07/18 07:07:56;;;;;;;5.87;4.03;;;;;;;29.21;48.88;100123.96;128393;1087;64099;-86
2021/07/18 07:10:23;;;;;;;6.33;4.30;;;;;;;29.21;48.74;100123.96;128391;1087;64680;-86
2021/07/18 07:12:49;;;;;;;6.07;4.27;;;;;;;29.21;48.44;100123.96;128340;1085;63761;-85
2021/07/18 07:15:16;;;;;;;5.00;3.90;;;;;;;29.21;48.56;100118.53;128415;1087;64280;-85
2021/07/18 07:17:45;;;;;;;5.87;4.00;;;;;;;29.21;48.48;100119.36;128376;1086;64141;-86
2021/07/18 07:20:13;;;;;;;5.90;4.20;;;;;;;29.22;48.62;100122.94;128371;1085;64105;-85
2021/07/18 07:22:39;;;;;;;5.63;4.20;;;;;;;29.21;48.38;100127.52;128389;1086;64134;-85
2021/07/18 07:25:14;;;;;;;5.07;3.97;;;;;;;29.21;48.55;100122.08;128457;1086;64140;-85
2021/07/18 07:27:41;;;;;;;5.23;3.90;;;;;;;29.22;48.74;100121.06;128377;1086;64137;-85
2021/07/18 07:30:09;;;;;;;6.37;3.93;;;;;;;29.22;48.42;100131.93;128401;1086;64114;-85
2021/07/18 07:32:35;;;;;;;5.67;4.33;;;;;;;29.22;48.49;100121.06;128461;1087;64140;-86
2021/07/18 07:35:03;;;;;;;5.43;4.13;;;;;;;29.22;48.65;100128.38;128503;1087;62076;-85
2021/07/18 07:37:31;;;;;;;5.53;4.10;;;;;;;29.23;48.97;100122.76;128379;1087;64121;-87
2021/07/18 07:39:58;;;;;;;5.50;4.00;;;;;;;29.23;48.74;100128.20;128412;1087;64134;-86
2021/07/18 07:42:24;;;;;;;5.37;4.27;;;;;;;29.23;48.50;100120.04;128358;1087;64311;-85
2021/07/18 07:44:52;;;;;;;6.10;3.90;;;;;;;29.23;48.43;100114.61;128376;1086;64202;-85
2021/07/18 07:47:19;;;;;;;7.23;4.07;;;;;;;29.24;48.38;100121.73;128360;1087;64329;-87
2021/07/18 07:49:46;;;;;;;5.98;4.18;;;;;;;29.24;48.53;100121.73;128382;1086;64208;-85
2021/07/18 07:52:15;;;;;;;5.83;4.27;;;;;;;29.23;48.82;100117.32;128374;1087;64099;-86
2021/07/18 07:54:44;;;;;;;5.70;4.03;;;;;;;29.24;48.60;100123.59;128390;1087;63949;-85
2021/07/18 07:57:11;;;;;;;5.40;4.23;;;;;;;29.24;48.83;100118.16;128353;1087;64179;-85
2021/07/18 07:59:37;;;;;;;5.30;4.00;;;;;;;29.23;48.39;100117.32;128365;1086;64157;-86
2021/07/18 08:02:07;;;;;;;5.90;4.20;;;;;;;29.22;48.48;100115.63;128354;1087;64131;-85
2021/07/18 08:04:50;;;;;;;6.40;4.10;;;;;;;29.22;48.37;100126.49;128398;1087;64105;-86
2021/07/18 08:07:17;;;;;;;4.93;4.10;;;;;;;29.23;48.65;100121.92;128371;1087;64278;-85
2021/07/18 08:09:43;;;;;;;5.10;4.10;;;;;;;29.24;48.64;100118.16;128318;1087;64581;-85
2021/07/18 08:12:13;;;;;;;5.23;4.20;;;;;;;29.24;48.87;100132.61;128354;1085;64131;-84
2021/07/18 08:14:40;;;;;;;6.40;4.33;;;;;;;29.24;48.66;100129.89;128328;1087;64134;-85
2021/07/18 08:17:09;;;;;;;6.83;4.10;;;;;;;29.24;48.79;100126.31;128379;1085;64396;-85
2021/07/18 08:19:38;;;;;;;5.80;4.20;;;;;;;29.23;48.41;100125.48;128380;1087;64298;-85
2021/07/18 08:22:04;;;;;;;5.25;4.13;;;;;;;29.23;48.48;100120.04;128382;1087;64172;-85
2021/07/18 08:24:32;;;;;;;5.83;4.40;;;;;;;29.23;48.83;100128.20;128347;1085;64294;-86
2021/07/18 08:26:58;;;;;;;5.43;4.40;;;;;;;29.24;48.43;100129.03;128376;1087;64140;-85
2021/07/18 08:29:26;;;;;;;5.27;4.17;;;;;;;29.23;48.77;100128.20;128338;1087;64613;-85
2021/07/18 08:32:02;;;;;;;4.97;4.03;;;;;;;29.23;48.52;100111.89;128372;1087;64247;-85
2021/07/18 08:34:45;;;;;;;5.27;4.20;;;;;;;29.24;48.74;100120.88;128394;1085;64223;-85
2021/07/18 08:37:12;;;;;;;5.40;3.80;;;;;;;29.23;48.84;100117.32;128363;1085;64253;-85
2021/07/18 08:39:38;;;;;;;6.40;4.13;;;;;;;29.23;48.88;100121.92;128350;1086;64166;-85
2021/07/18 08:42:12;;;;;;;5.67;4.03;;;;;;;29.22;48.54;100126.49;128342;1086;64285;-85
2021/07/18 08:44:39;;;;;;;5.30;4.20;;;;;;;29.23;48.73;100121.92;128379;1087;64128;-85
2021/07/18 08:47:07;;;;;;;5.93;4.60;;;;;;;29.24;48.49;100121.73;128354;1087;64246;-85
2021/07/18 08:49:34;;;;;;;5.90;4.10;;;;;;;29.23;48.63;100125.48;128357;1087;64242;-85
2021/07/18 08:52:04;;;;;;;4.80;4.00;;;;;;;29.23;48.57;100128.20;128349;1085;65323;-85
2021/07/18 08:54:31;;;;;;;6.43;4.23;;;;;;;29.22;48.94;100112.91;128356;1087;64339;-86
2021/07/18 08:57:03;;;;;;;5.97;4.30;;;;;;;29.23;48.73;100116.48;128388;1087;64095;-86
2021/07/18 08:59:31;;;;;;;4.70;3.70;;;;;;;29.22;48.97;100110.19;128371;1087;64135;-85
2021/07/18 09:02:00;;;;;;;5.03;3.80;;;;;;;29.22;48.65;100120.22;128363;1086;64160;-85
2021/07/18 09:04:27;;;;;;;;;;;;;;;29.22;48.99;100117.51;128400;1087;64020;-85
2021/07/18 09:06:55;;;;;;;5.33;3.87;;;;;;;29.21;48.95;100116.64;128408;1087;64169;-85
2021/07/18 09:09:22;;;;;;;4.67;3.77;;;;;;;29.21;48.61;100110.38;128380;1086;64140;-85
2021/07/18 09:12:08;;;;;;;6.63;3.80;;;;;;;29.21;48.53;100116.64;128365;1085;64692;-86
2021/07/18 09:14:37;;;;;;;6.53;3.63;;;;;;;29.21;49.00;100113.92;128370;1087;64114;-86
2021/07/18 09:17:05;;;;;;;4.95;3.83;;;;;;;29.21;48.79;100113.09;128441;1087;64508;-86
2021/07/18 09:19:42;;;;;;;5.15;3.73;;;;;;;29.21;48.49;100107.66;128354;1085;64105;-85
2021/07/18 09:22:19;;;;;;;5.17;4.00;;;;;;;29.20;48.59;100097.80;128365;1087;64131;-86
2021/07/18 09:24:54;;;;;;;5.85;3.85;;;;;;;29.21;48.70;100099.50;128392;1086;61722;-85
2021/07/18 09:27:25;;;;;;;4.90;4.00;;;;;;;29.20;48.51;100101.38;127984;1087;64151;-85
2021/07/18 09:29:55;;;;;;;5.20;4.20;;;;;;;29.21;48.78;100097.61;128319;1085;64102;-84
2021/07/18 09:32:31;;;;;;;4.55;3.60;;;;;;;29.21;48.79;100097.61;128333;1086;63952;-85
2021/07/18 09:35:06;;;;;;;5.13;4.17;;;;;;;29.21;48.66;100097.61;128393;1087;64143;-85
2021/07/18 09:37:38;;;;;;;6.40;3.90;;;;;;;29.22;49.00;100102.03;128400;1085;64135;-85
2021/07/18 09:40:11;;;;;;;5.07;3.67;;;;;;;29.20;48.56;100095.95;128356;1087;64562;-85
2021/07/18 09:42:45;;;;;;;5.37;3.97;;;;;;;29.20;48.60;100090.52;128358;1087;64214;-86
2021/07/18 09:45:20;;;;;;;4.70;3.80;;;;;;;29.21;48.53;100094.06;128382;1086;64202;-85
2021/07/18 09:47:57;;;;;;;5.30;4.00;;;;;;;29.21;48.99;100086.75;128376;1085;64048;-85
2021/07/18 09:50:38;;;;;;;4.45;3.80;;;;;;;29.21;48.61;100088.63;128358;1086;64150;-85
2021/07/18 09:53:16;;;;;;;7.27;4.03;;;;;;;29.21;48.55;100078.59;128357;1087;64142;-86
2021/07/18 09:56:18;;;;;;;5.43;4.18;;;;;;;29.20;48.65;100090.52;128401;1086;64152;-85
2021/07/18 09:58:52;;;;;;;4.87;3.93;;;;;;;29.20;48.68;100079.64;128392;1087;64051;-85
2021/07/18 10:01:18;;;;;;;5.90;4.40;;;;;;;29.22;49.01;100090.33;128371;1086;64207;-85
2021/07/18 10:03:48;;;;;;;5.83;4.40;;;;;;;29.21;48.76;100083.20;128344;1086;64153;-85
2021/07/18 10:06:35;;;;;;;5.33;4.27;;;;;;;29.20;48.78;100079.64;128359;1087;64161;-85
2021/07/18 10:09:05;;;;;;;4.93;4.20;;;;;;;29.20;48.79;100076.92;128382;1087;64284;-85
2021/07/18 10:11:31;;;;;;;6.20;4.27;;;;;;;29.20;49.05;100070.63;128356;1086;64207;-85
2021/07/18 10:13:58;;;;;;;5.67;4.10;;;;;;;29.20;48.99;100071.48;128390;1085;64134;-85
2021/07/18 10:16:28;;;;;;;5.47;4.07;;;;;;;29.20;48.94;100074.20;128391;1087;64179;-85
2021/07/18 10:18:58;;;;;;;5.47;4.43;;;;;;;29.20;48.63;100066.05;128362;1087;64134;-86
2021/07/18 10:21:27;;;;;;;6.00;4.43;;;;;;;29.20;49.01;100071.48;128365;1087;64271;-85
2021/07/18 10:23:57;;;;;;;5.43;4.40;;;;;;;29.20;49.08;100067.91;128379;1085;64051;-84
2021/07/18 10:26:26;;;;;;;5.43;3.97;;;;;;;29.19;48.95;100071.64;128403;1087;64105;-85
2021/07/18 10:28:53;;;;;;;6.67;4.47;;;;;;;29.19;48.61;100069.79;128378;1085;64147;-85
2021/07/18 10:31:28;;;;;;;5.90;4.37;;;;;;;29.19;48.90;100063.48;128363;1087;64172;-85
2021/07/18 10:33:54;;;;;;;6.07;4.37;;;;;;;29.19;48.69;100061.64;128376;1084;64146;-85
2021/07/18 10:36:24;;;;;;;5.87;4.53;;;;;;;29.19;49.01;100060.77;128366;1085;64131;-86
2021/07/18 10:38:51;;;;;;;5.07;3.63;;;;;;;29.18;48.79;100059.94;128394;1086;64147;-85
2021/07/18 10:41:17;;;;;;;5.73;4.30;;;;;;;29.18;48.80;100054.50;128403;1086;64281;-85
2021/07/18 10:43:49;;;;;;;5.57;4.40;;;;;;;29.18;48.69;100059.94;128372;1085;64192;-85
2021/07/18 10:46:36;;;;;;;5.20;4.13;;;;;;;29.18;48.50;100067.26;128370;1087;64298;-84
2021/07/18 10:49:03;;;;;;;5.27;4.33;;;;;;;29.18;48.79;100059.11;128283;1087;64151;-85
2021/07/18 10:51:37;;;;;;;5.37;4.33;;;;;;;29.19;49.00;100055.34;128373;1087;64138;-85
2021/07/18 10:54:11;;;;;;;5.27;4.17;;;;;;;29.18;48.45;100059.11;128395;1087;64256;-86
2021/07/18 10:56:45;;;;;;;7.00;4.50;;;;;;;29.18;49.05;100043.63;128362;1086;64244;-85
2021/07/18 10:59:37;;;;;;;5.83;4.17;;;;;;;29.18;48.45;100050.95;128415;1087;64470;-85
2021/07/18 11:02:17;;;;;;;5.50;4.70;;;;;;;29.17;48.81;100050.09;128367;1087;64099;-85
2021/07/18 11:05:04;;;;;;;5.43;4.50;;;;;;;29.16;48.63;100045.70;128401;1087;64138;-86
2021/07/18 11:07:35;;;;;;;6.30;4.80;;;;;;;29.17;48.63;100049.25;128389;1086;64193;-85
2021/07/18 11:10:14;;;;;;;4.80;4.03;;;;;;;29.17;48.79;100038.38;128374;1087;64217;-85
2021/07/18 11:12:46;;;;;;;4.90;4.40;;;;;;;29.16;48.63;100042.13;128343;1087;64150;-85
2021/07/18 11:15:20;;;;;;;8.00;4.40;;;;;;;29.17;48.55;100046.53;128399;1085;64118;-85
2021/07/18 11:18:06;;;;;;;5.57;4.67;;;;;;;29.17;48.54;100044.66;128406;1086;64120;-85
2021/07/18 11:20:44;;;;;;;5.75;4.40;;;;;;;29.16;48.52;100045.70;128408;1086;64144;-85
2021/07/18 11:23:12;;;;;;;5.47;4.30;;;;;;;29.17;48.95;100044.66;128389;1085;64170;-85
2021/07/18 11:25:46;;;;;;;5.90;4.83;;;;;;;29.16;48.30;100032.11;128401;1086;64095;-85
2021/07/18 11:28:51;;;;;;;;;;;;;;;;;;;;;
2021/07/18 11:31:38;;;;;;;5.67;4.10;;;;;;;29.17;48.41;100033.78;128388;1086;64137;-85